sensor_id;sensor_type;location;lat;lon;timestamp;temperature;humidity
56162;DHT22;42045;52.986;6.014;2022-07-29T00:01:07;14.70;99.90
56162;DHT22;42045;52.986;6.014;2022-07-29T00:03:35;14.70;99.90
56162;DHT22;42045;52.986;6.014;2022-07-29T00:06:01;14.70;99.90
56162;DHT22;42045;52.986;6.014;2022-07-29T00:08:27;14.70;99.90
56162;DHT22;42045;52.986;6.014;2022-07-29T00:10:53;14.70;99.90
56162;DHT22;42045;52.986;6.014;2022-07-29T00:13:19;14.70;99.90
56162;DHT22;42045;52.986;6.014;2022-07-29T00:15:45;14.70;99.90
56162;DHT22;42045;52.986;6.014;2022-07-29T00:18:11;14.60;99.90
56162;DHT22;42045;52.986;6.014;2022-07-29T00:20:37;14.70;99.90
56162;DHT22;42045;52.986;6.014;2022-07-29T00:23:03;14.60;99.90
56162;DHT22;42045;52.986;6.014;2022-07-29T00:25:30;14.60;99.90
56162;DHT22;42045;52.986;6.014;2022-07-29T00:27:56;14.60;99.90
56162;DHT22;42045;52.986;6.014;2022-07-29T00:30:22;14.60;99.90
56162;DHT22;42045;52.986;6.014;2022-07-29T00:32:48;14.60;99.90
56162;DHT22;42045;52.986;6.014;2022-07-29T00:35:14;14.50;99.90
56162;DHT22;42045;52.986;6.014;2022-07-29T00:38:02;14.50;99.90
56162;DHT22;42045;52.986;6.014;2022-07-29T00:40:28;14.50;99.90
56162;DHT22;42045;52.986;6.014;2022-07-29T00:42:55;14.50;99.90
56162;DHT22;42045;52.986;6.014;2022-07-29T00:45:21;14.50;99.90
56162;DHT22;42045;52.986;6.014;2022-07-29T00:47:48;14.40;99.90
56162;DHT22;42045;52.986;6.014;2022-07-29T00:50:15;14.40;99.90
56162;DHT22;42045;52.986;6.014;2022-07-29T00:52:42;14.40;99.90
56162;DHT22;42045;52.986;6.014;2022-07-29T00:55:10;14.40;99.90
56162;DHT22;42045;52.986;6.014;2022-07-29T00:57:40;14.30;99.90
56162;DHT22;42045;52.986;6.014;2022-07-29T01:00:08;14.40;99.90
56162;DHT22;42045;52.986;6.014;2022-07-29T01:02:35;14.30;99.90
56162;DHT22;42045;52.986;6.014;2022-07-29T01:05:02;14.30;99.90
56162;DHT22;42045;52.986;6.014;2022-07-29T01:07:31;14.30;99.90
56162;DHT22;42045;52.986;6.014;2022-07-29T01:09:58;14.30;99.90
56162;DHT22;42045;52.986;6.014;2022-07-29T01:12:26;14.20;99.90
56162;DHT22;42045;52.986;6.014;2022-07-29T01:14:54;14.20;99.90
56162;DHT22;42045;52.986;6.014;2022-07-29T01:17:25;14.20;99.90
56162;DHT22;42045;52.986;6.014;2022-07-29T01:20:01;14.20;99.90
56162;DHT22;42045;52.986;6.014;2022-07-29T01:30:42;14.10;99.90
56162;DHT22;42045;52.986;6.014;2022-07-29T01:33:14;14.10;99.90
56162;DHT22;42045;52.986;6.014;2022-07-29T01:36:07;14.10;99.90
56162;DHT22;42045;52.986;6.014;2022-07-29T01:38:40;14.10;99.90
56162;DHT22;42045;52.986;6.014;2022-07-29T01:41:09;14.10;99.90
56162;DHT22;42045;52.986;6.014;2022-07-29T01:43:57;14.10;99.90
56162;DHT22;42045;52.986;6.014;2022-07-29T01:46:30;14.10;99.90
56162;DHT22;42045;52.986;6.014;2022-07-29T01:49:13;14.10;99.90
56162;DHT22;42045;52.986;6.014;2022-07-29T01:51:53;14.00;99.90
56162;DHT22;42045;52.986;6.014;2022-07-29T01:54:26;14.10;99.90
56162;DHT22;42045;52.986;6.014;2022-07-29T01:56:56;14.10;99.90
56162;DHT22;42045;52.986;6.014;2022-07-29T01:59:23;14.10;99.90
56162;DHT22;42045;52.986;6.014;2022-07-29T02:01:54;14.10;99.90
56162;DHT22;42045;52.986;6.014;2022-07-29T02:04:22;14.10;99.90
56162;DHT22;42045;52.986;6.014;2022-07-29T02:06:51;14.10;99.90
56162;DHT22;42045;52.986;6.014;2022-07-29T02:09:17;14.10;99.90
56162;DHT22;42045;52.986;6.014;2022-07-29T02:11:50;14.00;99.90
56162;DHT22;42045;52.986;6.014;2022-07-29T02:14:19;14.10;99.90
56162;DHT22;42045;52.986;6.014;2022-07-29T02:16:47;14.10;99.90
56162;DHT22;42045;52.986;6.014;2022-07-29T02:19:14;14.10;99.90
56162;DHT22;42045;52.986;6.014;2022-07-29T02:21:40;14.10;99.90
56162;DHT22;42045;52.986;6.014;2022-07-29T02:24:09;14.10;99.90
56162;DHT22;42045;52.986;6.014;2022-07-29T02:26:38;14.10;99.90
56162;DHT22;42045;52.986;6.014;2022-07-29T02:29:06;14.00;99.90
56162;DHT22;42045;52.986;6.014;2022-07-29T02:31:35;14.00;99.90
56162;DHT22;42045;52.986;6.014;2022-07-29T02:34:08;14.00;99.90
56162;DHT22;42045;52.986;6.014;2022-07-29T02:36:35;14.00;99.90
56162;DHT22;42045;52.986;6.014;2022-07-29T02:39:03;14.00;99.90
56162;DHT22;42045;52.986;6.014;2022-07-29T02:41:35;14.00;99.90
56162;DHT22;42045;52.986;6.014;2022-07-29T02:44:31;14.00;99.90
56162;DHT22;42045;52.986;6.014;2022-07-29T02:47:19;13.90;99.90
56162;DHT22;42045;52.986;6.014;2022-07-29T02:49:53;13.90;99.90
56162;DHT22;42045;52.986;6.014;2022-07-29T02:55:23;14.00;99.90
56162;DHT22;42045;52.986;6.014;2022-07-29T03:00:28;13.90;99.90
56162;DHT22;42045;52.986;6.014;2022-07-29T03:02:56;13.90;99.90
56162;DHT22;42045;52.986;6.014;2022-07-29T03:05:27;14.00;99.90
56162;DHT22;42045;52.986;6.014;2022-07-29T03:08:03;13.90;99.90
56162;DHT22;42045;52.986;6.014;2022-07-29T03:10:30;14.00;99.90
56162;DHT22;42045;52.986;6.014;2022-07-29T03:12:57;13.90;99.90
56162;DHT22;42045;52.986;6.014;2022-07-29T03:15:24;13.90;99.90
56162;DHT22;42045;52.986;6.014;2022-07-29T03:17:51;14.00;99.90
56162;DHT22;42045;52.986;6.014;2022-07-29T03:20:18;14.00;99.90
56162;DHT22;42045;52.986;6.014;2022-07-29T03:22:44;14.00;99.90
56162;DHT22;42045;52.986;6.014;2022-07-29T03:25:14;14.00;99.90
56162;DHT22;42045;52.986;6.014;2022-07-29T03:27:41;14.00;99.90
56162;DHT22;42045;52.986;6.014;2022-07-29T03:30:08;14.00;99.90
56162;DHT22;42045;52.986;6.014;2022-07-29T03:32:34;14.00;99.90
56162;DHT22;42045;52.986;6.014;2022-07-29T03:35:00;14.00;99.90
56162;DHT22;42045;52.986;6.014;2022-07-29T03:37:26;14.00;99.90
56162;DHT22;42045;52.986;6.014;2022-07-29T03:39:55;14.00;99.90
56162;DHT22;42045;52.986;6.014;2022-07-29T03:42:24;14.00;99.90
56162;DHT22;42045;52.986;6.014;2022-07-29T03:44:52;14.00;99.90
56162;DHT22;42045;52.986;6.014;2022-07-29T03:47:26;14.00;99.90
56162;DHT22;42045;52.986;6.014;2022-07-29T03:49:59;14.00;99.90
56162;DHT22;42045;52.986;6.014;2022-07-29T03:52:28;14.00;99.90
56162;DHT22;42045;52.986;6.014;2022-07-29T03:54:55;14.00;99.90
56162;DHT22;42045;52.986;6.014;2022-07-29T03:57:34;14.00;99.90
56162;DHT22;42045;52.986;6.014;2022-07-29T04:00:02;14.00;99.90
56162;DHT22;42045;52.986;6.014;2022-07-29T04:02:31;14.00;99.90
56162;DHT22;42045;52.986;6.014;2022-07-29T04:04:58;13.90;99.90
56162;DHT22;42045;52.986;6.014;2022-07-29T04:07:24;13.90;99.90
56162;DHT22;42045;52.986;6.014;2022-07-29T04:09:50;13.90;99.90
56162;DHT22;42045;52.986;6.014;2022-07-29T04:12:16;13.90;99.90
56162;DHT22;42045;52.986;6.014;2022-07-29T04:14:43;13.90;99.90
56162;DHT22;42045;52.986;6.014;2022-07-29T04:17:09;13.90;99.90
56162;DHT22;42045;52.986;6.014;2022-07-29T04:19:35;13.90;99.90
56162;DHT22;42045;52.986;6.014;2022-07-29T04:22:02;13.80;99.90
56162;DHT22;42045;52.986;6.014;2022-07-29T04:24:28;13.80;99.90
56162;DHT22;42045;52.986;6.014;2022-07-29T04:26:54;13.90;99.90
56162;DHT22;42045;52.986;6.014;2022-07-29T04:29:20;13.80;99.90
56162;DHT22;42045;52.986;6.014;2022-07-29T04:31:46;13.80;99.90
56162;DHT22;42045;52.986;6.014;2022-07-29T04:34:12;13.90;99.90
56162;DHT22;42045;52.986;6.014;2022-07-29T04:36:38;13.90;99.90
56162;DHT22;42045;52.986;6.014;2022-07-29T04:39:04;13.90;99.90
56162;DHT22;42045;52.986;6.014;2022-07-29T04:41:30;13.90;99.90
56162;DHT22;42045;52.986;6.014;2022-07-29T04:43:56;13.80;99.90
56162;DHT22;42045;52.986;6.014;2022-07-29T04:46:22;13.90;99.90
56162;DHT22;42045;52.986;6.014;2022-07-29T04:48:48;13.80;99.90
56162;DHT22;42045;52.986;6.014;2022-07-29T04:51:15;13.90;99.90
56162;DHT22;42045;52.986;6.014;2022-07-29T04:53:41;13.90;99.90
56162;DHT22;42045;52.986;6.014;2022-07-29T04:56:07;13.90;99.90
56162;DHT22;42045;52.986;6.014;2022-07-29T04:58:35;14.00;99.90
56162;DHT22;42045;52.986;6.014;2022-07-29T05:01:02;14.00;99.90
56162;DHT22;42045;52.986;6.014;2022-07-29T05:03:29;14.00;99.90
56162;DHT22;42045;52.986;6.014;2022-07-29T05:05:55;14.10;99.90
56162;DHT22;42045;52.986;6.014;2022-07-29T05:08:21;14.10;99.90
56162;DHT22;42045;52.986;6.014;2022-07-29T05:10:47;14.20;99.90
56162;DHT22;42045;52.986;6.014;2022-07-29T05:13:25;14.30;99.90
56162;DHT22;42045;52.986;6.014;2022-07-29T05:15:51;14.40;99.90
56162;DHT22;42045;52.986;6.014;2022-07-29T05:18:17;14.50;99.90
56162;DHT22;42045;52.986;6.014;2022-07-29T05:20:43;14.60;99.90
56162;DHT22;42045;52.986;6.014;2022-07-29T05:23:15;14.80;99.90
56162;DHT22;42045;52.986;6.014;2022-07-29T05:25:41;14.90;99.90
56162;DHT22;42045;52.986;6.014;2022-07-29T05:28:07;15.00;99.90
56162;DHT22;42045;52.986;6.014;2022-07-29T05:30:33;15.10;99.90
56162;DHT22;42045;52.986;6.014;2022-07-29T05:32:59;15.20;99.90
56162;DHT22;42045;52.986;6.014;2022-07-29T05:35:25;15.40;99.90
56162;DHT22;42045;52.986;6.014;2022-07-29T05:37:51;15.70;99.90
56162;DHT22;42045;52.986;6.014;2022-07-29T05:40:17;16.10;99.90
56162;DHT22;42045;52.986;6.014;2022-07-29T05:42:43;16.70;99.90
56162;DHT22;42045;52.986;6.014;2022-07-29T05:45:09;17.50;99.90
56162;DHT22;42045;52.986;6.014;2022-07-29T05:47:35;18.40;99.90
56162;DHT22;42045;52.986;6.014;2022-07-29T05:50:01;19.40;99.90
56162;DHT22;42045;52.986;6.014;2022-07-29T05:52:27;20.70;99.90
56162;DHT22;42045;52.986;6.014;2022-07-29T05:54:52;21.80;99.90
56162;DHT22;42045;52.986;6.014;2022-07-29T05:57:20;22.90;99.90
56162;DHT22;42045;52.986;6.014;2022-07-29T05:59:46;23.20;99.80
56162;DHT22;42045;52.986;6.014;2022-07-29T06:02:13;23.40;99.90
56162;DHT22;42045;52.986;6.014;2022-07-29T06:04:39;23.50;98.90
56162;DHT22;42045;52.986;6.014;2022-07-29T06:07:05;24.20;98.60
56162;DHT22;42045;52.986;6.014;2022-07-29T06:09:31;24.70;97.80
56162;DHT22;42045;52.986;6.014;2022-07-29T06:12:00;25.30;95.60
56162;DHT22;42045;52.986;6.014;2022-07-29T06:14:27;25.40;93.70
56162;DHT22;42045;52.986;6.014;2022-07-29T06:16:54;25.80;95.50
56162;DHT22;42045;52.986;6.014;2022-07-29T06:19:20;26.60;94.40
56162;DHT22;42045;52.986;6.014;2022-07-29T06:21:47;26.80;93.20
56162;DHT22;42045;52.986;6.014;2022-07-29T06:24:14;26.40;93.40
56162;DHT22;42045;52.986;6.014;2022-07-29T06:26:41;25.50;93.00
56162;DHT22;42045;52.986;6.014;2022-07-29T06:29:08;24.50;93.00
56162;DHT22;42045;52.986;6.014;2022-07-29T06:31:36;23.30;94.10
56162;DHT22;42045;52.986;6.014;2022-07-29T06:34:06;22.50;94.80
56162;DHT22;42045;52.986;6.014;2022-07-29T06:36:38;22.10;95.70
56162;DHT22;42045;52.986;6.014;2022-07-29T06:39:05;21.90;96.20
56162;DHT22;42045;52.986;6.014;2022-07-29T06:41:32;22.40;96.30
56162;DHT22;42045;52.986;6.014;2022-07-29T06:43:58;22.60;95.90
56162;DHT22;42045;52.986;6.014;2022-07-29T06:46:26;22.60;96.00
56162;DHT22;42045;52.986;6.014;2022-07-29T06:48:54;22.60;96.00
56162;DHT22;42045;52.986;6.014;2022-07-29T06:51:20;23.20;95.30
56162;DHT22;42045;52.986;6.014;2022-07-29T06:53:47;22.70;95.30
56162;DHT22;42045;52.986;6.014;2022-07-29T06:56:12;22.70;95.30
56162;DHT22;42045;52.986;6.014;2022-07-29T06:58:39;22.40;95.30
56162;DHT22;42045;52.986;6.014;2022-07-29T07:01:06;22.70;95.50
56162;DHT22;42045;52.986;6.014;2022-07-29T07:03:32;23.20;95.30
56162;DHT22;42045;52.986;6.014;2022-07-29T07:05:59;23.40;94.30
56162;DHT22;42045;52.986;6.014;2022-07-29T07:08:24;23.40;94.50
56162;DHT22;42045;52.986;6.014;2022-07-29T07:10:51;23.50;94.40
56162;DHT22;42045;52.986;6.014;2022-07-29T07:13:18;23.70;94.20
56162;DHT22;42045;52.986;6.014;2022-07-29T07:15:45;24.10;93.40
56162;DHT22;42045;52.986;6.014;2022-07-29T07:18:14;23.70;93.20
56162;DHT22;42045;52.986;6.014;2022-07-29T07:20:40;22.90;94.00
56162;DHT22;42045;52.986;6.014;2022-07-29T07:23:06;22.60;94.50
56162;DHT22;42045;52.986;6.014;2022-07-29T07:25:32;22.20;94.70
56162;DHT22;42045;52.986;6.014;2022-07-29T07:27:58;21.90;95.30
56162;DHT22;42045;52.986;6.014;2022-07-29T07:30:26;22.00;95.60
56162;DHT22;42045;52.986;6.014;2022-07-29T07:32:53;22.00;95.40
56162;DHT22;42045;52.986;6.014;2022-07-29T07:35:19;21.90;95.30
56162;DHT22;42045;52.986;6.014;2022-07-29T07:37:45;21.70;95.40
56162;DHT22;42045;52.986;6.014;2022-07-29T07:40:14;21.50;95.70
56162;DHT22;42045;52.986;6.014;2022-07-29T07:42:42;21.30;95.60
56162;DHT22;42045;52.986;6.014;2022-07-29T07:45:08;21.00;95.90
56162;DHT22;42045;52.986;6.014;2022-07-29T07:47:38;20.50;96.20
56162;DHT22;42045;52.986;6.014;2022-07-29T07:50:06;20.20;96.70
56162;DHT22;42045;52.986;6.014;2022-07-29T07:52:32;19.90;97.10
56162;DHT22;42045;52.986;6.014;2022-07-29T07:54:59;19.70;97.50
56162;DHT22;42045;52.986;6.014;2022-07-29T07:57:25;19.40;97.70
56162;DHT22;42045;52.986;6.014;2022-07-29T07:59:52;19.20;98.00
56162;DHT22;42045;52.986;6.014;2022-07-29T08:02:18;19.10;98.40
56162;DHT22;42045;52.986;6.014;2022-07-29T08:04:44;19.00;98.50
56162;DHT22;42045;52.986;6.014;2022-07-29T08:07:11;18.90;99.10
56162;DHT22;42045;52.986;6.014;2022-07-29T08:09:42;18.80;98.90
56162;DHT22;42045;52.986;6.014;2022-07-29T08:12:08;18.60;98.90
56162;DHT22;42045;52.986;6.014;2022-07-29T08:14:34;18.40;99.20
56162;DHT22;42045;52.986;6.014;2022-07-29T08:17:00;18.30;99.30
56162;DHT22;42045;52.986;6.014;2022-07-29T08:19:26;18.20;99.90
56162;DHT22;42045;52.986;6.014;2022-07-29T08:21:52;18.10;99.90
56162;DHT22;42045;52.986;6.014;2022-07-29T08:24:20;18.00;99.90
56162;DHT22;42045;52.986;6.014;2022-07-29T08:27:05;17.90;99.90
56162;DHT22;42045;52.986;6.014;2022-07-29T08:29:31;17.90;99.90
56162;DHT22;42045;52.986;6.014;2022-07-29T08:31:57;17.80;99.90
56162;DHT22;42045;52.986;6.014;2022-07-29T08:34:23;17.80;99.90
56162;DHT22;42045;52.986;6.014;2022-07-29T08:36:49;17.80;99.90
56162;DHT22;42045;52.986;6.014;2022-07-29T08:39:15;17.80;99.90
56162;DHT22;42045;52.986;6.014;2022-07-29T08:41:40;17.80;99.90
56162;DHT22;42045;52.986;6.014;2022-07-29T08:44:06;17.70;99.90
56162;DHT22;42045;52.986;6.014;2022-07-29T08:46:33;17.70;99.90
56162;DHT22;42045;52.986;6.014;2022-07-29T08:48:59;17.60;99.90
56162;DHT22;42045;52.986;6.014;2022-07-29T08:51:25;17.60;99.90
56162;DHT22;42045;52.986;6.014;2022-07-29T08:53:53;17.60;99.90
56162;DHT22;42045;52.986;6.014;2022-07-29T08:56:20;17.50;99.90
56162;DHT22;42045;52.986;6.014;2022-07-29T08:58:47;17.60;99.90
56162;DHT22;42045;52.986;6.014;2022-07-29T09:01:22;17.60;99.90
56162;DHT22;42045;52.986;6.014;2022-07-29T09:03:49;17.60;99.90
56162;DHT22;42045;52.986;6.014;2022-07-29T09:06:18;17.60;99.90
56162;DHT22;42045;52.986;6.014;2022-07-29T09:08:45;17.70;99.90
56162;DHT22;42045;52.986;6.014;2022-07-29T09:11:12;17.70;99.90
56162;DHT22;42045;52.986;6.014;2022-07-29T09:13:38;17.80;99.90
56162;DHT22;42045;52.986;6.014;2022-07-29T09:16:04;17.90;99.90
56162;DHT22;42045;52.986;6.014;2022-07-29T09:21:02;18.10;99.90
56162;DHT22;42045;52.986;6.014;2022-07-29T09:26:30;18.50;99.90
56162;DHT22;42045;52.986;6.014;2022-07-29T09:28:57;18.60;99.90
56162;DHT22;42045;52.986;6.014;2022-07-29T09:31:34;18.80;99.90
56162;DHT22;42045;52.986;6.014;2022-07-29T09:34:00;18.90;99.90
56162;DHT22;42045;52.986;6.014;2022-07-29T09:36:27;19.10;99.90
56162;DHT22;42045;52.986;6.014;2022-07-29T09:38:58;19.30;99.90
56162;DHT22;42045;52.986;6.014;2022-07-29T09:41:25;19.60;99.90
56162;DHT22;42045;52.986;6.014;2022-07-29T09:43:56;19.90;99.90
56162;DHT22;42045;52.986;6.014;2022-07-29T09:46:22;20.10;99.90
56162;DHT22;42045;52.986;6.014;2022-07-29T09:49:11;20.30;99.90
56162;DHT22;42045;52.986;6.014;2022-07-29T09:51:37;20.30;99.90
56162;DHT22;42045;52.986;6.014;2022-07-29T09:54:22;20.40;99.90
56162;DHT22;42045;52.986;6.014;2022-07-29T09:56:49;20.40;99.90
56162;DHT22;42045;52.986;6.014;2022-07-29T09:59:15;20.50;99.90
56162;DHT22;42045;52.986;6.014;2022-07-29T10:01:41;20.60;99.90
56162;DHT22;42045;52.986;6.014;2022-07-29T10:04:07;20.50;99.90
56162;DHT22;42045;52.986;6.014;2022-07-29T10:06:34;20.30;99.90
56162;DHT22;42045;52.986;6.014;2022-07-29T10:09:15;20.20;99.90
56162;DHT22;42045;52.986;6.014;2022-07-29T10:11:41;20.10;99.90
56162;DHT22;42045;52.986;6.014;2022-07-29T10:14:07;19.90;99.90
56162;DHT22;42045;52.986;6.014;2022-07-29T10:16:33;19.80;99.90
56162;DHT22;42045;52.986;6.014;2022-07-29T10:18:59;19.90;99.90
56162;DHT22;42045;52.986;6.014;2022-07-29T10:21:27;19.80;99.90
56162;DHT22;42045;52.986;6.014;2022-07-29T10:23:59;19.90;99.90
56162;DHT22;42045;52.986;6.014;2022-07-29T10:26:25;19.90;99.90
56162;DHT22;42045;52.986;6.014;2022-07-29T10:28:51;19.90;99.90
56162;DHT22;42045;52.986;6.014;2022-07-29T10:31:39;19.90;99.90
56162;DHT22;42045;52.986;6.014;2022-07-29T10:34:11;20.00;99.90
56162;DHT22;42045;52.986;6.014;2022-07-29T10:37:02;20.10;99.90
56162;DHT22;42045;52.986;6.014;2022-07-29T10:39:59;20.10;99.90
56162;DHT22;42045;52.986;6.014;2022-07-29T10:42:28;20.20;99.90
56162;DHT22;42045;52.986;6.014;2022-07-29T10:44:55;20.00;99.90
56162;DHT22;42045;52.986;6.014;2022-07-29T10:47:26;19.90;99.90
56162;DHT22;42045;52.986;6.014;2022-07-29T10:50:03;19.90;99.90
56162;DHT22;42045;52.986;6.014;2022-07-29T10:55:37;19.90;99.90
56162;DHT22;42045;52.986;6.014;2022-07-29T10:58:15;19.90;99.90
56162;DHT22;42045;52.986;6.014;2022-07-29T11:00:41;20.00;99.90
56162;DHT22;42045;52.986;6.014;2022-07-29T11:03:07;20.10;99.90
56162;DHT22;42045;52.986;6.014;2022-07-29T11:05:53;20.30;99.90
56162;DHT22;42045;52.986;6.014;2022-07-29T11:08:21;20.60;99.90
56162;DHT22;42045;52.986;6.014;2022-07-29T11:10:52;20.80;99.90
56162;DHT22;42045;52.986;6.014;2022-07-29T11:16:09;21.20;99.90
56162;DHT22;42045;52.986;6.014;2022-07-29T11:18:35;21.30;99.90
56162;DHT22;42045;52.986;6.014;2022-07-29T11:21:01;21.50;99.90
56162;DHT22;42045;52.986;6.014;2022-07-29T11:23:33;21.50;99.90
56162;DHT22;42045;52.986;6.014;2022-07-29T11:26:20;21.60;99.90
56162;DHT22;42045;52.986;6.014;2022-07-29T11:44:55;21.40;99.70
56162;DHT22;42045;52.986;6.014;2022-07-29T11:47:22;21.40;99.90
56162;DHT22;42045;52.986;6.014;2022-07-29T11:49:49;21.40;99.50
56162;DHT22;42045;52.986;6.014;2022-07-29T11:52:17;21.50;99.90
56162;DHT22;42045;52.986;6.014;2022-07-29T11:54:43;21.60;99.90
56162;DHT22;42045;52.986;6.014;2022-07-29T11:57:10;21.70;99.90
56162;DHT22;42045;52.986;6.014;2022-07-29T11:59:45;21.80;99.90
56162;DHT22;42045;52.986;6.014;2022-07-29T12:02:11;22.00;99.90
56162;DHT22;42045;52.986;6.014;2022-07-29T12:04:53;22.20;99.90
56162;DHT22;42045;52.986;6.014;2022-07-29T12:07:33;22.40;99.90
56162;DHT22;42045;52.986;6.014;2022-07-29T12:10:00;22.70;99.80
56162;DHT22;42045;52.986;6.014;2022-07-29T12:12:26;23.10;99.40
56162;DHT22;42045;52.986;6.014;2022-07-29T12:14:55;23.30;99.20
56162;DHT22;42045;52.986;6.014;2022-07-29T12:17:39;23.30;99.00
56162;DHT22;42045;52.986;6.014;2022-07-29T12:20:05;23.50;98.00
56162;DHT22;42045;52.986;6.014;2022-07-29T12:22:34;23.60;97.90
56162;DHT22;42045;52.986;6.014;2022-07-29T12:25:04;23.60;97.80
56162;DHT22;42045;52.986;6.014;2022-07-29T12:27:31;23.50;97.50
56162;DHT22;42045;52.986;6.014;2022-07-29T12:30:13;23.70;97.50
56162;DHT22;42045;52.986;6.014;2022-07-29T12:32:47;23.70;97.20
56162;DHT22;42045;52.986;6.014;2022-07-29T12:35:18;23.90;96.70
56162;DHT22;42045;52.986;6.014;2022-07-29T12:37:48;23.80;96.90
56162;DHT22;42045;52.986;6.014;2022-07-29T12:40:16;23.90;96.70
56162;DHT22;42045;52.986;6.014;2022-07-29T12:43:12;24.00;96.40
56162;DHT22;42045;52.986;6.014;2022-07-29T12:45:40;23.90;96.20
56162;DHT22;42045;52.986;6.014;2022-07-29T12:48:07;23.90;96.40
56162;DHT22;42045;52.986;6.014;2022-07-29T12:50:35;24.00;96.40
56162;DHT22;42045;52.986;6.014;2022-07-29T12:53:12;24.00;96.20
56162;DHT22;42045;52.986;6.014;2022-07-29T12:55:46;24.10;95.60
56162;DHT22;42045;52.986;6.014;2022-07-29T12:58:38;24.10;95.40
56162;DHT22;42045;52.986;6.014;2022-07-29T13:01:15;24.10;94.90
56162;DHT22;42045;52.986;6.014;2022-07-29T13:09:10;24.30;95.30
56162;DHT22;42045;52.986;6.014;2022-07-29T13:14:06;24.30;94.80
56162;DHT22;42045;52.986;6.014;2022-07-29T13:16:32;24.40;94.70
56162;DHT22;42045;52.986;6.014;2022-07-29T13:19:11;24.30;94.60
56162;DHT22;42045;52.986;6.014;2022-07-29T13:21:38;24.30;94.50
56162;DHT22;42045;52.986;6.014;2022-07-29T13:24:07;24.00;94.70
56162;DHT22;42045;52.986;6.014;2022-07-29T13:26:34;23.90;94.80
56162;DHT22;42045;52.986;6.014;2022-07-29T13:29:00;23.60;94.90
56162;DHT22;42045;52.986;6.014;2022-07-29T13:31:26;23.40;95.60
56162;DHT22;42045;52.986;6.014;2022-07-29T13:33:57;23.40;95.50
56162;DHT22;42045;52.986;6.014;2022-07-29T13:36:23;23.40;95.60
56162;DHT22;42045;52.986;6.014;2022-07-29T13:38:52;23.40;95.50
56162;DHT22;42045;52.986;6.014;2022-07-29T13:41:17;23.40;95.50
56162;DHT22;42045;52.986;6.014;2022-07-29T13:43:43;23.50;95.60
56162;DHT22;42045;52.986;6.014;2022-07-29T13:46:09;23.60;95.40
56162;DHT22;42045;52.986;6.014;2022-07-29T13:48:35;23.70;95.60
56162;DHT22;42045;52.986;6.014;2022-07-29T13:51:00;23.80;95.30
56162;DHT22;42045;52.986;6.014;2022-07-29T13:53:26;23.90;95.00
56162;DHT22;42045;52.986;6.014;2022-07-29T13:55:57;23.70;95.00
56162;DHT22;42045;52.986;6.014;2022-07-29T13:58:22;23.70;95.10
56162;DHT22;42045;52.986;6.014;2022-07-29T14:00:48;23.80;95.00
56162;DHT22;42045;52.986;6.014;2022-07-29T14:03:14;23.70;94.70
56162;DHT22;42045;52.986;6.014;2022-07-29T14:05:40;23.70;95.00
56162;DHT22;42045;52.986;6.014;2022-07-29T14:08:06;23.70;95.90
56162;DHT22;42045;52.986;6.014;2022-07-29T14:10:39;23.80;95.50
56162;DHT22;42045;52.986;6.014;2022-07-29T14:13:04;23.90;95.20
56162;DHT22;42045;52.986;6.014;2022-07-29T14:15:33;24.00;95.30
56162;DHT22;42045;52.986;6.014;2022-07-29T14:17:59;24.00;94.40
56162;DHT22;42045;52.986;6.014;2022-07-29T14:20:25;23.90;94.30
56162;DHT22;42045;52.986;6.014;2022-07-29T14:22:50;24.00;94.90
56162;DHT22;42045;52.986;6.014;2022-07-29T14:25:16;24.00;94.60
56162;DHT22;42045;52.986;6.014;2022-07-29T14:27:43;24.10;94.50
56162;DHT22;42045;52.986;6.014;2022-07-29T14:30:09;24.10;94.70
56162;DHT22;42045;52.986;6.014;2022-07-29T14:32:35;24.10;94.30
56162;DHT22;42045;52.986;6.014;2022-07-29T14:35:01;24.00;94.20
56162;DHT22;42045;52.986;6.014;2022-07-29T14:37:26;23.90;94.10
56162;DHT22;42045;52.986;6.014;2022-07-29T14:39:52;23.80;94.10
56162;DHT22;42045;52.986;6.014;2022-07-29T14:42:19;23.80;94.40
56162;DHT22;42045;52.986;6.014;2022-07-29T14:44:48;23.90;94.50
56162;DHT22;42045;52.986;6.014;2022-07-29T14:47:14;23.90;94.70
56162;DHT22;42045;52.986;6.014;2022-07-29T14:49:40;23.90;94.40
56162;DHT22;42045;52.986;6.014;2022-07-29T14:52:06;23.90;94.00
56162;DHT22;42045;52.986;6.014;2022-07-29T14:54:31;23.90;94.60
56162;DHT22;42045;52.986;6.014;2022-07-29T14:56:57;23.90;94.30
56162;DHT22;42045;52.986;6.014;2022-07-29T14:59:23;23.90;94.20
56162;DHT22;42045;52.986;6.014;2022-07-29T15:01:49;23.90;94.40
56162;DHT22;42045;52.986;6.014;2022-07-29T15:04:15;24.00;94.20
56162;DHT22;42045;52.986;6.014;2022-07-29T15:06:41;24.00;94.70
56162;DHT22;42045;52.986;6.014;2022-07-29T15:09:08;24.10;94.90
56162;DHT22;42045;52.986;6.014;2022-07-29T15:11:39;24.10;94.80
56162;DHT22;42045;52.986;6.014;2022-07-29T15:14:06;24.10;94.30
56162;DHT22;42045;52.986;6.014;2022-07-29T15:16:32;24.20;94.40
56162;DHT22;42045;52.986;6.014;2022-07-29T15:18:59;24.30;94.50
56162;DHT22;42045;52.986;6.014;2022-07-29T15:21:25;24.40;95.40
56162;DHT22;42045;52.986;6.014;2022-07-29T15:23:51;24.50;95.50
56162;DHT22;42045;52.986;6.014;2022-07-29T15:26:16;24.60;95.10
56162;DHT22;42045;52.986;6.014;2022-07-29T15:28:43;24.60;94.60
56162;DHT22;42045;52.986;6.014;2022-07-29T15:31:09;24.60;94.60
56162;DHT22;42045;52.986;6.014;2022-07-29T15:33:40;24.60;94.80
56162;DHT22;42045;52.986;6.014;2022-07-29T15:36:09;24.60;94.20
56162;DHT22;42045;52.986;6.014;2022-07-29T15:38:38;24.60;94.30
56162;DHT22;42045;52.986;6.014;2022-07-29T15:41:06;24.60;94.10
56162;DHT22;42045;52.986;6.014;2022-07-29T15:43:32;24.70;94.20
56162;DHT22;42045;52.986;6.014;2022-07-29T15:46:01;24.70;94.40
56162;DHT22;42045;52.986;6.014;2022-07-29T15:48:46;24.80;94.80
56162;DHT22;42045;52.986;6.014;2022-07-29T15:51:12;24.90;95.10
56162;DHT22;42045;52.986;6.014;2022-07-29T15:53:38;25.00;94.80
56162;DHT22;42045;52.986;6.014;2022-07-29T15:56:04;25.00;94.70
56162;DHT22;42045;52.986;6.014;2022-07-29T15:58:30;25.00;94.60
56162;DHT22;42045;52.986;6.014;2022-07-29T16:00:56;24.90;94.50
56162;DHT22;42045;52.986;6.014;2022-07-29T16:03:22;24.70;94.00
56162;DHT22;42045;52.986;6.014;2022-07-29T16:05:51;24.60;93.60
56162;DHT22;42045;52.986;6.014;2022-07-29T16:08:17;24.40;93.10
56162;DHT22;42045;52.986;6.014;2022-07-29T16:10:43;24.20;93.90
56162;DHT22;42045;52.986;6.014;2022-07-29T16:13:09;24.20;94.20
56162;DHT22;42045;52.986;6.014;2022-07-29T16:15:40;24.10;94.10
56162;DHT22;42045;52.986;6.014;2022-07-29T16:18:06;24.10;93.90
56162;DHT22;42045;52.986;6.014;2022-07-29T16:20:33;24.10;93.90
56162;DHT22;42045;52.986;6.014;2022-07-29T16:22:59;24.10;93.80
56162;DHT22;42045;52.986;6.014;2022-07-29T16:25:26;24.10;93.80
56162;DHT22;42045;52.986;6.014;2022-07-29T16:27:51;24.00;93.90